Aviation Digital Data Service (ADDS)

Output produced by METARs form (0057 UTC 28 July 2016)
found at http://aviationweather.gov/adds/metars/
 
KECG 272340Z 2800/2824 07006KT P6SM SCT070 BKN250 
     FM280500 15003KT P6SM BKN250 
     FM281000 21003KT P6SM SCT250 
     FM281600 21008KT P6SM BKN250